Time;durP1;ratioP1;P1;durP2;ratioP2;P2;SDS_P1;SDS_P2;PMS_P1;PMS_P2;Temp;Humidity;BMP_temperature;BMP_pressure;BME280_temperature;BME280_humidity;BME280_pressure;Samples;Min_cycle;Max_cycle;Signal;HPM_P1;HPM_P2
2022/04/04 00:00:55;;;;;;;9.50;5.68;;;2.40;99.90;;;;;;4974211;28;20505;-63
2022/04/04 00:03:21;;;;;;;10.63;5.75;;;2.30;99.90;;;;;;4966550;28;20425;-63
2022/04/04 00:05:47;;;;;;;9.63;5.63;;;2.30;99.90;;;;;;4973505;28;20046;-63
2022/04/04 00:08:14;;;;;;;8.77;4.68;;;2.30;99.90;;;;;;4974095;28;20601;-63
2022/04/04 00:10:39;;;;;;;10.25;5.53;;;2.20;99.90;;;;;;4966709;28;20047;-63
2022/04/04 00:13:05;;;;;;;9.70;5.60;;;2.20;99.90;;;;;;4961355;28;20527;-63
2022/04/04 00:15:30;;;;;;;11.65;5.68;;;2.20;99.90;;;;;;4972916;28;20405;-63
2022/04/04 00:17:57;;;;;;;11.25;5.35;;;2.30;99.90;;;;;;4973902;28;20495;-63
2022/04/04 00:20:23;;;;;;;9.20;5.43;;;2.20;99.90;;;;;;4970589;28;20027;-63
2022/04/04 00:22:48;;;;;;;9.43;5.55;;;2.20;99.90;;;;;;4972816;28;20109;-63
2022/04/04 00:25:14;;;;;;;10.20;5.80;;;2.30;99.90;;;;;;4972244;28;20057;-64
2022/04/04 00:27:40;;;;;;;9.15;6.38;;;2.20;99.90;;;;;;4970027;28;20042;-63
2022/04/04 00:30:07;;;;;;;10.52;5.45;;;2.20;99.90;;;;;;4961670;28;20046;-63
2022/04/04 00:32:33;;;;;;;9.35;6.13;;;2.30;99.90;;;;;;4969551;28;20417;-63
2022/04/04 00:35:00;;;;;;;10.13;6.00;;;2.30;99.90;;;;;;4973246;28;20054;-64
2022/04/04 00:37:26;;;;;;;11.50;5.35;;;2.30;99.90;;;;;;4963405;28;20035;-63
2022/04/04 00:39:51;;;;;;;13.30;5.53;;;2.30;99.90;;;;;;4967028;28;20238;-64
2022/04/04 00:42:17;;;;;;;9.73;6.00;;;2.30;99.90;;;;;;4973023;28;20077;-63
2022/04/04 00:44:45;;;;;;;10.02;6.50;;;2.30;99.90;;;;;;4967823;28;20046;-63
2022/04/04 00:47:11;;;;;;;9.20;5.78;;;2.30;99.90;;;;;;4969123;28;20402;-63
2022/04/04 00:49:37;;;;;;;12.77;5.88;;;2.40;99.90;;;;;;4973100;28;20521;-63
2022/04/04 00:52:03;;;;;;;10.52;6.43;;;2.40;99.90;;;;;;4973385;28;20123;-64
2022/04/04 00:54:29;;;;;;;15.20;6.60;;;2.50;99.90;;;;;;4966768;28;20039;-63
2022/04/04 00:56:55;;;;;;;9.38;6.03;;;2.50;99.90;;;;;;4968903;28;20053;-63
2022/04/04 00:59:22;;;;;;;10.65;6.45;;;2.50;99.90;;;;;;4973214;28;20035;-63
2022/04/04 01:01:48;;;;;;;12.35;6.40;;;2.50;99.90;;;;;;4967517;28;20188;-63
2022/04/04 01:04:16;;;;;;;12.73;6.47;;;2.60;99.90;;;;;;4972059;28;20533;-63
2022/04/04 01:06:43;;;;;;;9.98;5.38;;;2.70;99.90;;;;;;4972594;28;20045;-63
2022/04/04 01:09:14;;;;;;;11.10;6.35;;;2.70;99.90;;;;;;4971578;28;20520;-64
2022/04/04 01:12:12;;;;;;;11.95;7.05;;;2.80;99.90;;;;;;4969432;28;20035;-63
2022/04/04 01:14:46;;;;;;;13.18;7.78;;;2.90;99.90;;;;;;4969138;28;20540;-63
2022/04/04 01:17:12;;;;;;;15.93;7.78;;;2.90;99.90;;;;;;4971541;28;20047;-64
2022/04/04 01:19:38;;;;;;;12.68;7.93;;;3.00;99.90;;;;;;4968212;28;20035;-63
2022/04/04 01:22:07;;;;;;;15.38;9.38;;;3.10;99.90;;;;;;4965053;28;20632;-63
2022/04/04 01:24:33;;;;;;;14.32;10.10;;;3.10;99.90;;;;;;4972456;28;20039;-64
2022/04/04 01:26:58;;;;;;;18.80;11.10;;;3.10;99.90;;;;;;4963869;28;20512;-64
2022/04/04 01:29:24;;;;;;;19.85;11.48;;;3.10;99.90;;;;;;4972130;28;20034;-63
2022/04/04 01:31:51;;;;;;;19.33;10.88;;;3.10;99.90;;;;;;4972472;28;20122;-63
2022/04/04 01:34:22;;;;;;;18.65;11.65;;;3.20;99.90;;;;;;4962829;28;20043;-63
2022/04/04 01:36:48;;;;;;;15.00;10.95;;;3.20;99.90;;;;;;4970790;28;20047;-63
2022/04/04 01:39:14;;;;;;;18.52;12.07;;;3.20;99.90;;;;;;4972379;28;20026;-63
2022/04/04 01:41:40;;;;;;;21.23;13.00;;;3.30;99.90;;;;;;4972434;28;20081;-63
2022/04/04 01:44:06;;;;;;;18.05;11.18;;;3.20;99.90;;;;;;4969937;28;20043;-63
2022/04/04 01:46:32;;;;;;;19.83;12.10;;;3.30;99.90;;;;;;4987556;22;20052;-64
2022/04/04 01:49:00;;;;;;;15.13;11.38;;;3.30;99.90;;;;;;4985549;28;20038;-64
2022/04/04 01:51:26;;;;;;;18.67;11.10;;;3.40;99.90;;;;;;4980403;28;20484;-64
2022/04/04 01:53:52;;;;;;;19.42;13.68;;;3.30;99.90;;;;;;4983416;28;20045;-64
2022/04/04 01:56:19;;;;;;;17.40;11.18;;;3.40;99.90;;;;;;4979142;28;20165;-64
2022/04/04 01:58:45;;;;;;;15.23;11.27;;;3.40;99.90;;;;;;4991317;28;20203;-64
2022/04/04 02:01:22;;;;;;;16.98;11.05;;;3.40;99.90;;;;;;4991525;28;20548;-64
2022/04/04 02:03:50;;;;;;;14.85;10.13;;;3.30;99.90;;;;;;4984374;28;20526;-64
2022/04/04 02:06:18;;;;;;;15.77;10.38;;;3.40;99.90;;;;;;4991098;28;20050;-64
2022/04/04 02:08:44;;;;;;;17.27;11.80;;;3.30;99.90;;;;;;4982855;28;20046;-64
2022/04/04 02:11:11;;;;;;;15.75;10.32;;;3.30;99.90;;;;;;4983205;28;20030;-64
2022/04/04 02:13:37;;;;;;;18.40;11.52;;;3.30;99.90;;;;;;4990749;28;20709;-64
2022/04/04 02:16:04;;;;;;;16.40;11.77;;;3.30;99.90;;;;;;4991118;28;20109;-64
2022/04/04 02:18:30;;;;;;;19.77;12.20;;;3.40;99.90;;;;;;4957806;28;20432;-64
2022/04/04 02:20:57;;;;;;;17.98;11.05;;;3.40;99.90;;;;;;4983625;28;20062;-64
2022/04/04 02:23:22;;;;;;;17.23;10.82;;;3.40;99.90;;;;;;4990980;28;20038;-64
2022/04/04 02:25:50;;;;;;;20.45;11.40;;;3.50;99.90;;;;;;4984398;28;20084;-64
2022/04/04 02:28:16;;;;;;;18.98;11.35;;;3.50;99.90;;;;;;4990605;28;20113;-64
2022/04/04 02:30:44;;;;;;;22.60;10.68;;;3.50;99.90;;;;;;4991074;28;20042;-64
2022/04/04 02:33:10;;;;;;;16.88;11.52;;;3.50;99.90;;;;;;4991151;28;20038;-64
2022/04/04 02:35:36;;;;;;;21.05;12.70;;;3.60;99.90;;;;;;4986401;28;20557;-64
2022/04/04 02:38:02;;;;;;;17.17;11.07;;;3.70;99.90;;;;;;4983158;28;20030;-64
2022/04/04 02:40:28;;;;;;;19.92;11.70;;;3.70;99.90;;;;;;4994432;28;20089;-64
2022/04/04 02:42:54;;;;;;;20.92;11.93;;;3.80;99.90;;;;;;4988537;28;20042;-64
2022/04/04 02:45:19;;;;;;;21.88;12.25;;;3.80;99.90;;;;;;4989517;28;20038;-64
2022/04/04 02:47:45;;;;;;;21.02;12.00;;;3.80;99.90;;;;;;4995096;28;20040;-64
2022/04/04 02:50:12;;;;;;;20.23;11.70;;;3.80;99.90;;;;;;4995211;28;20407;-64
2022/04/04 02:52:38;;;;;;;21.20;12.63;;;3.80;99.90;;;;;;4983793;28;20126;-64
2022/04/04 02:57:49;;;;;;;22.90;12.15;;;3.90;99.90;;;;;;4991028;28;20595;-63
2022/04/04 03:00:17;;;;;;;24.05;12.77;;;3.90;99.90;;;;;;4988284;28;20030;-64
2022/04/04 03:02:44;;;;;;;23.90;14.88;;;3.90;99.90;;;;;;4976497;28;20042;-64
2022/04/04 03:05:09;;;;;;;24.17;13.20;;;3.90;99.90;;;;;;4994748;28;20069;-63
2022/04/04 03:07:35;;;;;;;24.27;12.98;;;3.90;99.90;;;;;;4991812;28;20065;-64
2022/04/04 03:10:01;;;;;;;22.10;12.95;;;4.00;99.90;;;;;;4988073;28;20034;-64
2022/04/04 03:12:26;;;;;;;20.33;12.57;;;4.00;99.90;;;;;;4994059;28;20043;-63
2022/04/04 03:14:52;;;;;;;19.50;12.57;;;4.00;99.90;;;;;;4991060;28;20073;-64
2022/04/04 03:17:18;;;;;;;20.73;11.63;;;4.00;99.90;;;;;;4991058;28;20106;-64
2022/04/04 03:19:43;;;;;;;20.13;12.93;;;4.00;99.90;;;;;;4994260;28;20081;-64
2022/04/04 03:22:09;;;;;;;23.92;12.52;;;4.00;99.90;;;;;;4994444;28;20034;-64
2022/04/04 03:24:34;;;;;;;26.98;13.73;;;4.00;99.90;;;;;;4989460;28;20408;-64
2022/04/04 03:27:01;;;;;;;21.38;14.00;;;4.00;99.90;;;;;;4982656;28;20404;-64
2022/04/04 03:29:26;;;;;;;24.08;15.00;;;4.00;99.90;;;;;;4994139;28;20038;-64
2022/04/04 03:31:53;;;;;;;24.48;14.35;;;4.00;99.90;;;;;;4988513;28;20082;-64
2022/04/04 03:34:18;;;;;;;22.77;13.77;;;4.00;99.90;;;;;;4993118;28;20492;-64
2022/04/04 03:36:44;;;;;;;25.52;14.88;;;4.00;99.90;;;;;;4993799;28;20054;-63
2022/04/04 03:39:13;;;;;;;24.00;16.08;;;4.00;99.90;;;;;;4994079;28;20113;-64
2022/04/04 03:41:39;;;;;;;22.50;14.00;;;4.00;99.90;;;;;;4981732;28;20109;-64
2022/04/04 03:44:06;;;;;;;22.27;14.10;;;4.10;99.90;;;;;;4976117;28;20133;-64
2022/04/04 03:46:32;;;;;;;23.58;13.88;;;4.00;99.90;;;;;;4989637;28;20042;-64
2022/04/04 03:48:58;;;;;;;27.45;16.02;;;4.10;99.90;;;;;;4984291;28;20034;-64
2022/04/04 03:51:23;;;;;;;22.55;15.75;;;4.10;99.90;;;;;;4984491;28;20531;-64
2022/04/04 03:53:49;;;;;;;27.60;15.32;;;4.10;99.90;;;;;;4992922;28;20137;-64
2022/04/04 03:56:15;;;;;;;26.38;15.80;;;4.10;99.90;;;;;;4993350;28;20092;-64
2022/04/04 03:58:40;;;;;;;24.13;15.30;;;4.10;99.90;;;;;;4980106;28;20041;-64
2022/04/04 04:01:06;;;;;;;24.85;15.98;;;4.20;99.90;;;;;;4993221;28;20049;-64
2022/04/04 04:03:34;;;;;;;23.75;15.60;;;4.20;99.90;;;;;;4993283;28;20081;-64
2022/04/04 04:06:11;;;;;;;25.48;15.80;;;4.20;99.90;;;;;;4985794;28;20042;-64
2022/04/04 04:08:55;;;;;;;25.67;18.08;;;4.30;99.90;;;;;;4992511;28;20133;-64
2022/04/04 04:11:21;;;;;;;23.08;16.73;;;4.30;99.90;;;;;;4993489;28;20488;-63
2022/04/04 04:13:47;;;;;;;22.27;14.50;;;4.40;99.90;;;;;;4986020;28;20489;-63
2022/04/04 04:16:13;;;;;;;23.60;15.23;;;4.40;99.90;;;;;;4986833;28;20046;-63
2022/04/04 04:18:40;;;;;;;22.23;14.40;;;4.40;99.90;;;;;;4971471;28;20392;-64
2022/04/04 04:21:07;;;;;;;21.98;15.40;;;4.40;99.90;;;;;;4989335;28;20038;-64
2022/04/04 04:23:34;;;;;;;22.95;14.57;;;4.50;99.90;;;;;;4980309;28;20122;-64
2022/04/04 04:26:00;;;;;;;22.60;15.45;;;4.50;99.90;;;;;;4992174;28;20121;-64
2022/04/04 04:28:26;;;;;;;24.05;16.85;;;4.50;99.90;;;;;;4993257;28;20053;-64
2022/04/04 04:30:51;;;;;;;24.58;16.05;;;4.50;99.90;;;;;;4988628;28;20038;-64
2022/04/04 04:33:17;;;;;;;21.85;14.50;;;4.60;99.90;;;;;;4987304;28;20030;-64
2022/04/04 04:35:43;;;;;;;22.52;14.57;;;4.60;99.90;;;;;;4992518;28;20121;-64
2022/04/04 04:38:08;;;;;;;22.25;15.00;;;4.60;99.90;;;;;;4985303;28;20038;-64
2022/04/04 04:40:35;;;;;;;22.75;15.10;;;4.60;99.90;;;;;;4992330;28;20121;-64
2022/04/04 04:43:01;;;;;;;21.08;15.63;;;4.70;99.90;;;;;;4984230;28;20490;-64
2022/04/04 04:45:27;;;;;;;24.08;16.13;;;4.70;99.90;;;;;;4987782;28;20050;-64
2022/04/04 04:47:53;;;;;;;25.13;15.18;;;4.70;99.90;;;;;;4987783;28;20034;-64
2022/04/04 04:50:20;;;;;;;20.48;14.18;;;4.70;99.90;;;;;;4992645;28;20053;-64
2022/04/04 04:52:46;;;;;;;23.20;16.35;;;4.70;99.90;;;;;;4992483;28;20046;-64
2022/04/04 04:55:13;;;;;;;24.02;15.63;;;4.70;99.90;;;;;;4983078;28;20596;-64
2022/04/04 04:57:40;;;;;;;27.23;16.58;;;4.70;99.90;;;;;;4986879;28;20046;-64
2022/04/04 05:00:08;;;;;;;23.83;14.27;;;4.70;99.90;;;;;;4992399;28;20176;-63
2022/04/04 05:02:34;;;;;;;26.35;17.40;;;4.70;99.90;;;;;;4962650;28;20405;-65
2022/04/04 05:05:01;;;;;;;22.05;15.07;;;4.70;99.90;;;;;;4978571;28;20100;-64
2022/04/04 05:07:27;;;;;;;27.80;15.65;;;4.70;99.90;;;;;;4969011;28;20562;-65
2022/04/04 05:09:52;;;;;;;25.77;16.63;;;4.70;99.90;;;;;;4984061;28;20117;-65
2022/04/04 05:12:18;;;;;;;21.83;14.93;;;4.70;99.90;;;;;;4981618;28;20046;-65
2022/04/04 05:14:43;;;;;;;25.40;17.60;;;4.80;99.90;;;;;;4981025;28;20068;-65
2022/04/04 05:17:09;;;;;;;24.95;17.38;;;4.70;99.90;;;;;;4987869;28;20496;-64
2022/04/04 05:19:35;;;;;;;26.75;18.65;;;4.80;99.90;;;;;;4981062;28;20045;-65
2022/04/04 05:22:01;;;;;;;24.17;17.30;;;4.80;99.90;;;;;;4980003;28;20452;-64
2022/04/04 05:24:27;;;;;;;25.20;17.77;;;4.80;99.90;;;;;;4980893;28;20049;-64
2022/04/04 05:26:55;;;;;;;24.80;17.08;;;4.90;99.90;;;;;;4984998;28;20038;-64
2022/04/04 05:29:20;;;;;;;25.75;16.58;;;4.80;99.90;;;;;;4980861;28;20038;-65
2022/04/04 05:31:46;;;;;;;22.58;15.13;;;4.90;99.90;;;;;;4980911;28;20049;-64
2022/04/04 05:34:12;;;;;;;23.25;14.40;;;4.90;99.90;;;;;;4982332;28;20048;-64
2022/04/04 05:36:38;;;;;;;24.05;15.00;;;5.00;99.90;;;;;;4987204;28;20042;-64
2022/04/04 05:39:05;;;;;;;18.38;14.32;;;5.00;99.90;;;;;;4985342;28;20096;-63
2022/04/04 05:41:30;;;;;;;18.95;14.90;;;5.00;99.90;;;;;;4985743;28;20036;-63
2022/04/04 05:43:57;;;;;;;20.35;15.38;;;5.00;99.90;;;;;;4984396;28;20042;-63
2022/04/04 05:46:23;;;;;;;18.33;13.27;;;5.10;99.90;;;;;;4960092;28;20053;-64
2022/04/04 05:48:49;;;;;;;20.55;15.20;;;5.10;99.90;;;;;;4985230;28;20038;-64
2022/04/04 05:51:16;;;;;;;20.85;14.63;;;5.20;99.90;;;;;;4984286;28;20045;-64
2022/04/04 05:53:42;;;;;;;21.58;14.10;;;5.20;99.90;;;;;;4959893;28;20058;-64
2022/04/04 05:56:08;;;;;;;18.27;12.82;;;5.20;99.90;;;;;;4975614;28;20066;-64
2022/04/04 05:58:33;;;;;;;20.38;13.25;;;5.20;99.90;;;;;;4983789;28;20042;-64
2022/04/04 06:00:59;;;;;;;21.13;13.50;;;5.20;99.90;;;;;;4979750;28;20031;-64
2022/04/04 06:03:25;;;;;;;20.08;13.65;;;5.20;99.90;;;;;;4981514;28;20510;-64
2022/04/04 06:05:51;;;;;;;18.95;13.52;;;5.30;99.90;;;;;;4981582;28;20049;-64
2022/04/04 06:08:17;;;;;;;17.00;11.48;;;5.40;99.90;;;;;;4983368;28;20046;-63
2022/04/04 06:10:46;;;;;;;16.60;12.25;;;5.50;99.90;;;;;;4970326;28;20057;-64
2022/04/04 06:13:13;;;;;;;17.48;11.48;;;5.50;99.90;;;;;;4982860;28;20049;-64
2022/04/04 06:15:38;;;;;;;18.70;12.65;;;5.50;99.90;;;;;;4984064;28;20776;-64
2022/04/04 06:18:04;;;;;;;18.38;11.35;;;5.60;99.90;;;;;;4955916;28;20141;-64
2022/04/04 06:20:30;;;;;;;22.00;15.57;;;5.60;99.90;;;;;;4977792;28;20504;-64
2022/04/04 06:22:56;;;;;;;18.60;11.85;;;5.80;99.90;;;;;;4984130;28;20100;-64
2022/04/04 06:25:21;;;;;;;17.95;10.55;;;5.80;99.90;;;;;;4987175;28;20104;-64
2022/04/04 06:27:47;;;;;;;22.95;11.68;;;5.90;99.90;;;;;;4973562;28;20896;-64
2022/04/04 06:30:13;;;;;;;20.98;11.82;;;5.90;99.90;;;;;;4980838;28;20447;-64
2022/04/04 06:32:43;;;;;;;18.98;11.85;;;6.00;99.90;;;;;;4987056;28;20747;-64
2022/04/04 06:35:10;;;;;;;17.08;11.18;;;5.90;99.90;;;;;;4983944;28;20042;-63
2022/04/04 06:37:36;;;;;;;22.95;11.93;;;5.90;99.90;;;;;;4979099;28;20034;-64
2022/04/04 06:40:03;;;;;;;20.00;11.40;;;6.00;99.90;;;;;;4985782;28;20035;-64
2022/04/04 06:42:29;;;;;;;18.88;12.35;;;5.90;99.90;;;;;;4986808;28;20038;-64
2022/04/04 06:44:57;;;;;;;21.15;11.10;;;6.00;99.90;;;;;;4979723;28;20039;-63
2022/04/04 06:47:23;;;;;;;27.33;13.00;;;6.00;99.90;;;;;;4964602;28;20042;-63
2022/04/04 06:49:52;;;;;;;28.42;13.23;;;6.00;99.90;;;;;;4978205;28;20081;-63
2022/04/04 06:52:18;;;;;;;17.33;11.07;;;6.10;99.90;;;;;;4977828;28;20598;-63
2022/04/04 06:54:44;;;;;;;15.55;10.85;;;6.10;99.90;;;;;;4985763;28;20050;-63
2022/04/04 06:57:09;;;;;;;16.50;11.13;;;6.20;99.90;;;;;;4986841;28;20060;-63
2022/04/04 06:59:35;;;;;;;19.27;11.30;;;6.20;99.90;;;;;;4980886;28;20517;-64
2022/04/04 07:02:00;;;;;;;15.02;10.73;;;6.20;99.90;;;;;;4978844;28;20030;-64
2022/04/04 07:04:26;;;;;;;14.90;11.15;;;6.20;99.90;;;;;;4983319;28;20042;-63
2022/04/04 07:06:51;;;;;;;17.45;11.27;;;6.20;99.90;;;;;;4980846;28;20058;-63
2022/04/04 07:09:17;;;;;;;15.15;10.95;;;6.30;99.90;;;;;;4980153;28;20042;-63
2022/04/04 07:11:43;;;;;;;18.85;10.85;;;6.20;99.90;;;;;;4963717;28;20061;-63
2022/04/04 07:14:10;;;;;;;20.23;11.48;;;6.20;99.90;;;;;;4985732;28;20046;-64
2022/04/04 07:16:35;;;;;;;15.73;11.15;;;6.20;99.90;;;;;;4984496;28;20165;-63
2022/04/04 07:19:01;;;;;;;20.83;12.13;;;6.20;99.90;;;;;;4966970;28;20774;-64
2022/04/04 07:21:28;;;;;;;18.58;11.90;;;6.20;99.90;;;;;;4981751;28;20041;-64
2022/04/04 07:23:54;;;;;;;16.65;11.98;;;6.20;99.90;;;;;;4970558;28;20045;-64
2022/04/04 07:26:21;;;;;;;17.25;12.80;;;6.10;99.90;;;;;;4980040;28;20049;-64
2022/04/04 07:28:47;;;;;;;20.15;12.63;;;6.10;99.90;;;;;;4990370;28;20100;-64
2022/04/04 07:31:17;;;;;;;22.63;14.40;;;6.10;99.90;;;;;;4990883;28;20484;-64
2022/04/04 07:33:43;;;;;;;17.77;12.50;;;6.00;99.90;;;;;;4985519;28;20093;-64
2022/04/04 07:36:10;;;;;;;17.13;13.63;;;6.00;99.90;;;;;;4985783;28;20038;-64
2022/04/04 07:38:37;;;;;;;19.77;12.30;;;6.00;99.90;;;;;;4978280;28;20521;-64
2022/04/04 07:41:02;;;;;;;21.77;13.93;;;5.90;99.90;;;;;;4982949;28;20042;-64
2022/04/04 07:43:28;;;;;;;20.13;12.80;;;5.90;99.90;;;;;;4981688;28;20039;-64
2022/04/04 07:45:53;;;;;;;20.05;13.10;;;5.90;99.90;;;;;;4988955;28;20121;-64
2022/04/04 07:48:19;;;;;;;22.95;14.32;;;6.00;99.90;;;;;;4978082;28;20074;-65
2022/04/04 07:50:45;;;;;;;20.63;14.38;;;6.00;99.90;;;;;;4988929;28;20101;-65
2022/04/04 07:53:12;;;;;;;19.67;13.93;;;6.00;99.90;;;;;;4971755;28;20091;-65
2022/04/04 07:55:39;;;;;;;19.17;13.88;;;6.00;99.90;;;;;;4984226;28;20046;-64
2022/04/04 07:58:05;;;;;;;23.65;13.50;;;6.00;99.90;;;;;;4981169;28;20034;-65
2022/04/04 08:00:31;;;;;;;21.35;14.18;;;6.00;99.90;;;;;;4989166;28;20512;-65
2022/04/04 08:02:57;;;;;;;21.63;14.48;;;6.00;99.90;;;;;;4983088;28;20145;-65
2022/04/04 08:05:23;;;;;;;20.70;13.73;;;6.00;99.90;;;;;;4989371;28;20563;-65
2022/04/04 08:07:51;;;;;;;20.15;14.70;;;5.90;99.90;;;;;;4986457;28;20106;-65
2022/04/04 08:10:18;;;;;;;19.15;13.73;;;5.90;99.90;;;;;;4976376;28;20089;-65
2022/04/04 08:12:50;;;;;;;25.60;15.95;;;5.90;99.90;;;;;;4984692;28;20046;-64
2022/04/04 08:15:15;;;;;;;;;;;5.90;99.90;;;;;;4979201;28;20520;-65
2022/04/04 08:17:41;;;;;;;25.95;16.02;;;5.90;99.90;;;;;;4974469;28;19918;-65
2022/04/04 08:20:08;;;;;;;21.52;15.63;;;5.80;99.90;;;;;;4976359;28;20042;-64
2022/04/04 08:22:45;;;;;;;25.30;15.65;;;5.80;99.90;;;;;;4981938;28;20524;-64
2022/04/04 08:25:12;;;;;;;22.20;15.43;;;5.80;99.90;;;;;;4981556;28;20050;-64
2022/04/04 08:27:38;;;;;;;25.40;16.55;;;5.80;99.90;;;;;;4989808;28;20050;-64
2022/04/04 08:30:08;;;;;;;21.35;15.27;;;5.70;99.90;;;;;;4982869;28;20723;-64
2022/04/04 08:32:38;;;;;;;22.23;15.60;;;5.70;99.90;;;;;;4981308;28;20034;-65
2022/04/04 08:35:07;;;;;;;22.85;15.63;;;5.70;99.90;;;;;;4977398;28;20046;-65
2022/04/04 08:37:37;;;;;;;20.77;15.98;;;5.70;99.90;;;;;;4974223;28;20125;-64
2022/04/04 08:40:06;;;;;;;26.85;16.23;;;5.70;99.90;;;;;;4980575;28;20046;-64
2022/04/04 08:42:32;;;;;;;20.48;14.63;;;5.80;99.90;;;;;;4988917;28;20046;-65
2022/04/04 08:44:59;;;;;;;21.77;16.80;;;5.80;99.90;;;;;;4976100;28;20504;-65
2022/04/04 08:47:25;;;;;;;25.60;16.15;;;5.80;99.90;;;;;;4979638;28;20802;-65
2022/04/04 08:49:52;;;;;;;22.02;14.60;;;5.80;99.90;;;;;;4968959;28;20065;-65
2022/04/04 08:52:19;;;;;;;22.02;15.35;;;5.90;99.90;;;;;;4988789;28;20093;-65
2022/04/04 08:54:45;;;;;;;21.45;15.27;;;6.00;99.90;;;;;;4988336;28;20042;-65
2022/04/04 08:57:10;;;;;;;21.77;14.02;;;6.00;99.90;;;;;;4989263;28;20078;-65
2022/04/04 08:59:36;;;;;;;18.42;14.10;;;6.10;99.90;;;;;;4981995;28;20534;-65
2022/04/04 09:02:02;;;;;;;18.95;13.18;;;6.10;99.90;;;;;;4988207;28;20461;-65
2022/04/04 09:04:29;;;;;;;17.42;13.35;;;6.20;99.90;;;;;;4985681;28;20485;-65
2022/04/04 09:07:00;;;;;;;15.60;10.93;;;6.20;99.90;;;;;;4986998;28;20763;-65
2022/04/04 09:09:40;;;;;;;14.88;11.70;;;6.30;99.90;;;;;;4965654;28;20124;-65
2022/04/04 09:12:07;;;;;;;15.50;10.82;;;6.30;99.90;;;;;;4980922;28;20038;-65
2022/04/04 09:14:45;;;;;;;15.73;12.20;;;6.30;99.90;;;;;;4970017;28;20077;-65
2022/04/04 09:17:12;;;;;;;14.35;11.00;;;6.30;99.90;;;;;;4968166;28;20050;-65
2022/04/04 09:19:38;;;;;;;18.17;12.63;;;6.30;99.90;;;;;;4980822;28;20034;-65
2022/04/04 09:22:10;;;;;;;19.38;13.20;;;6.30;99.90;;;;;;4982019;28;20644;-65
2022/04/04 09:24:52;;;;;;;16.65;13.00;;;6.30;99.90;;;;;;4980118;28;20038;-65
2022/04/04 09:27:23;;;;;;;17.45;12.93;;;6.30;99.90;;;;;;4982466;28;20575;-65
2022/04/04 09:29:54;;;;;;;16.65;11.68;;;6.20;99.90;;;;;;4988487;28;20042;-65
2022/04/04 09:32:20;;;;;;;16.73;12.60;;;6.20;99.90;;;;;;4975014;28;20127;-64
2022/04/04 09:34:52;;;;;;;14.10;10.30;;;6.10;99.90;;;;;;4968117;28;20141;-64
2022/04/04 09:37:19;;;;;;;;;;;6.20;99.90;;;;;;4988379;28;20038;-64
2022/04/04 09:39:45;;;;;;;21.20;11.27;;;6.20;99.90;;;;;;4976738;28;19922;-64
2022/04/04 09:42:15;;;;;;;16.00;12.23;;;6.10;99.90;;;;;;4987617;28;20088;-64
2022/04/04 09:44:40;;;;;;;14.82;10.75;;;6.20;99.90;;;;;;4976145;28;20677;-64
2022/04/04 09:47:06;;;;;;;15.40;11.50;;;6.10;99.90;;;;;;4986635;28;20043;-64
2022/04/04 09:49:38;;;;;;;12.93;9.57;;;6.10;99.90;;;;;;4985729;28;20042;-64
2022/04/04 09:52:04;;;;;;;17.25;11.10;;;6.10;99.90;;;;;;4988002;28;20043;-64
2022/04/04 09:54:30;;;;;;;15.48;10.63;;;6.10;99.90;;;;;;4962247;28;20045;-64
2022/04/04 09:57:15;;;;;;;13.95;10.15;;;6.20;99.90;;;;;;4967715;28;20135;-64
2022/04/04 09:59:41;;;;;;;12.30;10.00;;;6.20;99.90;;;;;;4970667;28;20046;-64
2022/04/04 10:02:08;;;;;;;11.82;9.00;;;6.20;99.90;;;;;;4977509;28;20050;-64
2022/04/04 10:04:34;;;;;;;14.10;10.25;;;6.30;99.90;;;;;;4967315;28;20046;-64
2022/04/04 10:07:08;;;;;;;13.10;9.73;;;6.30;99.90;;;;;;4987498;28;20516;-64
2022/04/04 10:09:35;;;;;;;14.15;11.30;;;6.30;99.90;;;;;;4988000;28;20603;-64
2022/04/04 10:12:01;;;;;;;12.43;9.98;;;6.20;99.90;;;;;;4977718;28;20047;-63
2022/04/04 10:14:28;;;;;;;12.02;8.77;;;6.20;99.90;;;;;;4981644;28;20042;-63
2022/04/04 10:16:54;;;;;;;11.45;9.45;;;6.20;99.90;;;;;;4987318;28;20077;-64
2022/04/04 10:19:21;;;;;;;11.52;8.35;;;6.30;99.90;;;;;;4987811;28;20558;-64
2022/04/04 10:21:47;;;;;;;13.07;7.93;;;6.30;99.90;;;;;;4981826;28;20042;-64
2022/04/04 10:24:13;;;;;;;8.18;7.22;;;6.40;99.90;;;;;;4980847;28;20508;-64
2022/04/04 10:26:40;;;;;;;10.70;7.50;;;6.40;99.90;;;;;;4970005;28;20578;-64
2022/04/04 10:29:08;;;;;;;9.60;7.00;;;6.40;99.90;;;;;;4980137;28;20050;-64
2022/04/04 10:31:51;;;;;;;9.13;7.70;;;6.40;99.90;;;;;;4975989;28;20038;-64
2022/04/04 10:34:19;;;;;;;8.35;5.78;;;6.40;99.90;;;;;;4980499;28;20042;-64
2022/04/04 10:37:06;;;;;;;9.07;6.65;;;6.40;99.90;;;;;;4987368;28;20043;-64
2022/04/04 10:39:45;;;;;;;8.68;6.95;;;6.40;99.90;;;;;;4982497;28;20568;-64
2022/04/04 10:42:36;;;;;;;10.93;6.93;;;6.40;99.90;;;;;;4974778;28;20653;-64
2022/04/04 10:45:06;;;;;;;10.00;7.07;;;6.40;99.90;;;;;;4974650;28;20156;-64
2022/04/04 10:47:34;;;;;;;8.63;6.40;;;6.50;99.90;;;;;;4975953;28;20065;-64
2022/04/04 10:50:20;;;;;;;8.70;6.35;;;6.60;99.90;;;;;;4985363;28;20040;-64
2022/04/04 10:52:47;;;;;;;8.32;6.25;;;6.60;99.90;;;;;;4985012;28;20046;-64
2022/04/04 10:55:27;;;;;;;8.60;6.68;;;6.70;99.90;;;;;;4981208;28;20042;-64
2022/04/04 10:58:16;;;;;;;8.50;6.73;;;6.70;99.90;;;;;;4985414;28;20046;-64
2022/04/04 11:01:00;;;;;;;10.00;6.65;;;6.70;99.90;;;;;;4989154;28;20746;-64
2022/04/04 11:03:48;;;;;;;8.32;6.28;;;6.70;99.90;;;;;;4982333;28;20451;-64
2022/04/04 11:09:04;;;;;;;12.25;7.45;;;6.70;99.90;;;;;;4987462;28;20046;-64
2022/04/04 11:11:57;;;;;;;11.13;6.82;;;6.70;99.90;;;;;;4981685;28;20507;-63
2022/04/04 11:14:31;;;;;;;9.13;6.57;;;6.80;99.90;;;;;;4978229;28;20042;-63
2022/04/04 11:17:08;;;;;;;12.52;7.43;;;6.80;99.90;;;;;;4987315;28;20050;-64
2022/04/04 11:19:53;;;;;;;10.23;6.78;;;6.80;99.90;;;;;;4985222;28;20109;-63
2022/04/04 11:22:23;;;;;;;9.45;6.75;;;6.80;99.90;;;;;;4980718;28;20049;-64
2022/04/04 11:24:51;;;;;;;9.67;6.43;;;6.80;99.90;;;;;;4987670;28;20488;-64
2022/04/04 11:27:17;;;;;;;8.70;5.90;;;6.80;99.90;;;;;;4973066;28;20049;-64
2022/04/04 11:29:43;;;;;;;9.57;6.97;;;6.80;99.90;;;;;;4991130;28;20069;-64
2022/04/04 11:32:16;;;;;;;10.20;6.03;;;6.80;99.90;;;;;;4979705;28;20535;-63
2022/04/04 11:34:43;;;;;;;9.38;6.63;;;6.90;99.90;;;;;;4982230;28;20932;-64
2022/04/04 11:37:18;;;;;;;8.38;5.97;;;6.90;99.90;;;;;;4983962;28;20082;-64
2022/04/04 11:39:47;;;;;;;9.02;6.53;;;6.90;99.90;;;;;;4987940;28;20420;-64
2022/04/04 11:42:14;;;;;;;6.30;5.38;;;7.00;99.90;;;;;;4972883;28;20054;-63
2022/04/04 11:44:47;;;;;;;8.30;5.82;;;7.00;99.90;;;;;;4971497;28;20046;-63
2022/04/04 11:47:13;;;;;;;8.02;6.10;;;7.00;99.90;;;;;;4983533;28;20101;-63
2022/04/04 11:49:42;;;;;;;10.80;6.30;;;7.00;99.90;;;;;;4981809;28;20605;-63
2022/04/04 11:52:09;;;;;;;7.80;5.95;;;7.00;99.90;;;;;;4980889;28;20046;-63
2022/04/04 11:54:51;;;;;;;8.20;5.85;;;7.10;99.90;;;;;;4985218;28;20038;-64
2022/04/04 11:57:18;;;;;;;7.90;5.78;;;7.10;99.90;;;;;;4966866;28;20053;-63
2022/04/04 11:59:48;;;;;;;6.93;5.50;;;7.10;99.90;;;;;;4986023;28;20067;-63
2022/04/04 12:02:14;;;;;;;7.43;5.53;;;7.10;99.90;;;;;;4980397;28;20041;-63
2022/04/04 12:04:43;;;;;;;8.38;6.10;;;7.10;99.90;;;;;;4987606;28;20433;-63
2022/04/04 12:07:10;;;;;;;9.00;5.93;;;7.10;99.90;;;;;;4986421;28;20043;-63
2022/04/04 12:09:37;;;;;;;7.50;5.47;;;7.20;99.90;;;;;;4976303;28;20043;-63
2022/04/04 12:12:04;;;;;;;8.43;5.78;;;7.20;99.90;;;;;;4982741;28;20093;-63
2022/04/04 12:14:34;;;;;;;6.60;4.82;;;7.30;99.90;;;;;;4988061;28;20681;-63
2022/04/04 12:17:00;;;;;;;6.43;5.35;;;7.30;99.90;;;;;;4987140;28;20074;-63
2022/04/04 12:19:26;;;;;;;5.60;4.63;;;7.40;99.90;;;;;;4977486;28;20038;-63
2022/04/04 12:21:52;;;;;;;6.68;5.10;;;7.50;99.90;;;;;;4982632;28;20125;-63
2022/04/04 12:27:15;;;;;;;7.82;4.38;;;7.50;99.90;;;;;;4976287;28;20513;-64
2022/04/04 12:29:44;;;;;;;6.53;5.60;;;7.50;99.90;;;;;;4982820;28;20485;-63
2022/04/04 12:32:18;;;;;;;6.10;5.30;;;7.50;99.90;;;;;;4987925;28;20069;-64
2022/04/04 12:35:08;;;;;;;6.05;5.10;;;7.50;99.90;;;;;;4987346;28;20084;-63
2022/04/04 12:37:42;;;;;;;8.00;4.93;;;7.50;99.90;;;;;;4976451;28;20050;-63
2022/04/04 12:40:22;;;;;;;7.60;4.95;;;7.50;99.90;;;;;;4981733;28;20433;-63
2022/04/04 12:42:50;;;;;;;7.28;4.72;;;7.50;99.90;;;;;;4982768;28;20054;-63
2022/04/04 12:45:18;;;;;;;6.60;5.07;;;7.50;99.90;;;;;;4986026;28;20042;-63
2022/04/04 12:47:53;;;;;;;5.32;4.28;;;7.40;99.90;;;;;;4989329;28;20041;-63
2022/04/04 12:50:21;;;;;;;5.95;4.07;;;7.50;99.90;;;;;;4984905;28;20035;-63
2022/04/04 12:53:03;;;;;;;6.00;4.25;;;7.50;99.90;;;;;;4976375;28;20410;-63
2022/04/04 12:55:29;;;;;;;6.38;4.43;;;7.50;99.90;;;;;;4988535;28;20120;-63